createdAt,value
2017-10-28T00:01:08.503Z,64.60
2017-10-28T00:03:35.948Z,64.70
2017-10-28T00:06:04.161Z,64.30
2017-10-28T00:08:31.620Z,64.30
2017-10-28T00:10:59.073Z,64.50
2017-10-28T00:13:26.538Z,64.30
2017-10-28T00:15:53.985Z,64.20
2017-10-28T00:18:21.442Z,64.30
2017-10-28T00:20:48.901Z,64.20
2017-10-28T00:23:16.602Z,64.00
2017-10-28T00:25:44.065Z,63.90
2017-10-28T00:28:11.508Z,63.90
2017-10-28T00:30:44.510Z,63.70
2017-10-28T00:33:17.650Z,64.20
2017-10-28T00:35:50.850Z,64.20
2017-10-28T00:38:18.302Z,64.50
2017-10-28T00:40:45.757Z,64.20
2017-10-28T00:43:13.211Z,64.10
2017-10-28T00:45:40.673Z,63.80
2017-10-28T00:48:08.126Z,63.40
2017-10-28T00:50:35.582Z,63.10
2017-10-28T00:53:03.037Z,63.20
2017-10-28T00:55:30.494Z,63.00
2017-10-28T00:57:57.958Z,63.00
2017-10-28T01:00:25.402Z,63.00
2017-10-28T01:02:52.871Z,63.00
2017-10-28T01:05:20.334Z,62.90
2017-10-28T01:07:47.791Z,62.90
2017-10-28T01:10:15.246Z,62.90
2017-10-28T01:12:42.706Z,62.70
2017-10-28T01:15:10.158Z,62.60
2017-10-28T01:17:37.613Z,62.00
2017-10-28T01:20:05.220Z,62.00
2017-10-28T01:22:32.682Z,61.80
2017-10-28T01:25:00.137Z,61.80
2017-10-28T01:27:27.598Z,61.80
2017-10-28T01:29:55.055Z,62.10
2017-10-28T01:32:22.509Z,62.40
2017-10-28T01:34:49.969Z,62.20
2017-10-28T01:37:17.425Z,61.90
2017-10-28T01:39:44.883Z,61.50
2017-10-28T01:42:12.334Z,61.10
2017-10-28T01:44:39.821Z,61.10
2017-10-28T01:47:11.932Z,60.50
2017-10-28T01:49:39.389Z,60.40
2017-10-28T01:52:06.846Z,60.40
2017-10-28T01:54:34.307Z,60.20
2017-10-28T01:57:01.771Z,60.00
2017-10-28T01:59:29.234Z,60.00
2017-10-28T02:01:56.683Z,59.90
2017-10-28T02:04:24.159Z,59.50
2017-10-28T02:06:51.615Z,59.30
2017-10-28T02:09:19.074Z,59.40
2017-10-28T02:11:46.539Z,59.40
2017-10-28T02:14:13.994Z,59.60
2017-10-28T02:16:41.469Z,59.40
2017-10-28T02:19:09.682Z,59.00
2017-10-28T02:21:37.161Z,58.90
2017-10-28T02:24:04.600Z,59.00
2017-10-28T02:26:32.054Z,58.70
2017-10-28T02:28:59.511Z,58.70
2017-10-28T02:31:26.971Z,58.80
2017-10-28T02:33:54.431Z,58.80
2017-10-28T02:36:21.894Z,58.60
2017-10-28T02:38:49.339Z,58.60
2017-10-28T02:41:16.798Z,59.20
2017-10-28T02:43:44.259Z,58.70
2017-10-28T02:46:11.735Z,58.50
2017-10-28T02:48:39.190Z,58.50
2017-10-28T02:51:06.651Z,58.50
2017-10-28T02:53:34.106Z,58.60
2017-10-28T02:56:01.565Z,58.50
2017-10-28T02:58:29.026Z,58.40
2017-10-28T03:00:56.480Z,58.60
2017-10-28T03:03:23.934Z,58.50
2017-10-28T03:05:51.394Z,58.20
2017-10-28T03:08:18.859Z,58.10
2017-10-28T03:10:46.301Z,58.00
2017-10-28T03:13:13.768Z,58.10
2017-10-28T03:15:41.340Z,58.00
2017-10-28T03:18:08.791Z,58.20
2017-10-28T03:20:36.242Z,57.90
2017-10-28T03:23:03.702Z,58.30
2017-10-28T03:25:31.145Z,58.20
2017-10-28T03:27:58.605Z,58.20
2017-10-28T03:30:26.055Z,58.10
2017-10-28T03:32:53.510Z,58.00
2017-10-28T03:35:20.969Z,58.10
2017-10-28T03:37:48.430Z,58.10
2017-10-28T03:40:15.899Z,58.40
2017-10-28T03:42:43.342Z,58.10
2017-10-28T03:45:10.810Z,58.30
2017-10-28T03:47:38.255Z,58.60
2017-10-28T03:50:05.714Z,58.70
2017-10-28T03:52:33.166Z,58.60
2017-10-28T03:55:00.625Z,58.90
2017-10-28T03:57:28.076Z,58.90
2017-10-28T03:59:55.543Z,59.00
2017-10-28T04:02:23.017Z,59.40
2017-10-28T04:04:50.497Z,59.40
2017-10-28T04:07:17.962Z,59.30
2017-10-28T04:09:46.205Z,59.60
2017-10-28T04:12:13.649Z,59.60
2017-10-28T04:14:41.110Z,60.20
2017-10-28T04:17:08.590Z,59.70
2017-10-28T04:19:36.065Z,59.50
2017-10-28T04:22:03.515Z,59.50
2017-10-28T04:24:30.970Z,59.50
2017-10-28T04:26:58.430Z,59.60
2017-10-28T04:29:25.886Z,59.60
2017-10-28T04:31:53.349Z,60.70
2017-10-28T04:34:21.923Z,60.30
2017-10-28T04:36:50.155Z,60.40
2017-10-28T04:39:17.614Z,60.40
2017-10-28T04:41:45.070Z,60.10
2017-10-28T04:44:12.523Z,60.70
2017-10-28T04:46:39.990Z,60.90
2017-10-28T04:49:07.442Z,60.80
2017-10-28T04:51:34.905Z,60.90
2017-10-28T04:54:02.350Z,61.50
2017-10-28T04:56:29.829Z,61.40
2017-10-28T04:58:57.318Z,61.60
2017-10-28T05:01:24.769Z,61.40
2017-10-28T05:03:52.227Z,61.60
2017-10-28T05:06:20.447Z,61.30
2017-10-28T05:08:47.905Z,61.30
2017-10-28T05:11:16.113Z,62.00
2017-10-28T05:13:43.568Z,62.00
2017-10-28T05:16:11.018Z,61.80
2017-10-28T05:18:38.482Z,61.90
2017-10-28T05:21:05.961Z,61.90
2017-10-28T05:23:33.447Z,61.70
2017-10-28T05:26:01.672Z,62.10
2017-10-28T05:28:29.145Z,62.00
2017-10-28T05:30:56.598Z,62.00
2017-10-28T05:33:24.074Z,62.10
2017-10-28T05:35:51.523Z,61.80
2017-10-28T05:38:18.977Z,61.40
2017-10-28T05:40:46.437Z,61.80
2017-10-28T05:43:13.918Z,61.70
2017-10-28T05:45:42.134Z,62.30
2017-10-28T05:48:09.614Z,62.20
2017-10-28T05:50:37.083Z,62.20
2017-10-28T05:53:04.526Z,62.00
2017-10-28T05:55:32.022Z,61.90
2017-10-28T05:58:00.239Z,62.10
2017-10-28T06:00:27.698Z,62.10
2017-10-28T06:02:55.162Z,62.20
2017-10-28T06:05:22.624Z,62.30
2017-10-28T06:07:50.086Z,62.20
2017-10-28T06:10:17.551Z,62.40
2017-10-28T06:12:45.004Z,62.40
2017-10-28T06:15:12.491Z,62.60
2017-10-28T06:17:39.949Z,62.50
2017-10-28T06:20:08.178Z,62.20
2017-10-28T06:22:35.630Z,62.00
2017-10-28T06:25:03.110Z,61.90
2017-10-28T06:27:30.579Z,61.70
2017-10-28T06:29:58.037Z,62.00
2017-10-28T06:32:25.494Z,61.80
2017-10-28T06:34:52.964Z,62.30
2017-10-28T06:37:20.446Z,62.40
2017-10-28T06:39:48.662Z,62.70
2017-10-28T06:42:16.131Z,62.70
2017-10-28T06:44:43.583Z,62.50
2017-10-28T06:47:11.078Z,62.40
2017-10-28T06:49:39.322Z,61.80
2017-10-28T06:52:06.766Z,61.70
2017-10-28T06:54:34.237Z,62.10
2017-10-28T06:57:01.690Z,61.80
2017-10-28T06:59:29.140Z,61.50
2017-10-28T07:01:56.594Z,61.40
2017-10-28T07:04:24.041Z,61.20
2017-10-28T07:06:51.508Z,61.20
2017-10-28T07:09:18.961Z,61.30
2017-10-28T07:11:46.482Z,61.10
2017-10-28T07:14:13.933Z,61.30
2017-10-28T07:16:41.459Z,61.00
2017-10-28T07:19:08.912Z,61.40
2017-10-28T07:21:36.367Z,61.40
2017-10-28T07:24:03.848Z,60.80
2017-10-28T07:26:31.305Z,60.40
2017-10-28T07:28:58.765Z,60.70
2017-10-28T07:31:26.241Z,60.50
2017-10-28T07:33:53.699Z,60.20
2017-10-28T07:36:21.931Z,59.90
2017-10-28T07:38:49.384Z,59.90
2017-10-28T07:41:16.833Z,60.00
2017-10-28T07:43:44.299Z,59.70
2017-10-28T07:46:11.771Z,60.00
2017-10-28T07:48:39.261Z,59.90
2017-10-28T07:51:07.495Z,59.20
2017-10-28T07:53:34.974Z,59.20
2017-10-28T07:56:02.426Z,58.90
2017-10-28T07:58:29.886Z,59.20
2017-10-28T08:00:57.345Z,59.40
2017-10-28T08:03:24.798Z,59.70
2017-10-28T08:05:52.257Z,59.50
2017-10-28T08:08:19.722Z,58.90
2017-10-28T08:10:47.950Z,58.80
2017-10-28T08:13:15.401Z,58.80
2017-10-28T08:15:42.860Z,58.60
2017-10-28T08:18:10.303Z,58.40
2017-10-28T08:20:37.765Z,58.30
2017-10-28T08:23:05.238Z,58.40
2017-10-28T08:25:32.710Z,58.30
2017-10-28T08:28:00.174Z,58.50
2017-10-28T08:30:27.650Z,58.30
2017-10-28T08:32:56.042Z,58.20
2017-10-28T08:35:23.532Z,58.20
2017-10-28T08:37:51.060Z,58.10
2017-10-28T08:40:19.279Z,58.40
2017-10-28T08:42:46.733Z,58.30
2017-10-28T08:45:14.193Z,58.30
2017-10-28T08:47:41.683Z,58.30
2017-10-28T08:50:09.163Z,58.40
2017-10-28T08:52:37.430Z,58.60
2017-10-28T08:55:04.882Z,58.50
2017-10-28T08:57:32.346Z,58.80
2017-10-28T08:59:59.798Z,58.60
2017-10-28T09:02:27.269Z,58.70
2017-10-28T09:04:55.494Z,58.90
2017-10-28T09:07:22.955Z,58.90
2017-10-28T09:09:50.416Z,59.00
2017-10-28T09:12:17.910Z,59.20
2017-10-28T09:14:46.139Z,59.60
2017-10-28T09:17:13.590Z,59.50
2017-10-28T09:19:41.041Z,59.20
2017-10-28T09:22:08.502Z,59.40
2017-10-28T09:24:35.941Z,59.10
2017-10-28T09:27:03.390Z,59.30
2017-10-28T09:29:31.651Z,59.70
2017-10-28T09:31:59.881Z,59.90
2017-10-28T09:34:27.406Z,59.90
2017-10-28T09:36:54.867Z,59.80
2017-10-28T09:39:22.320Z,59.70
2017-10-28T09:41:49.766Z,59.50
2017-10-28T09:44:18.005Z,59.20
2017-10-28T09:46:45.485Z,59.20
2017-10-28T09:49:13.716Z,59.20
2017-10-28T09:51:41.176Z,59.10
2017-10-28T09:54:08.630Z,59.40
2017-10-28T09:56:36.091Z,59.60
2017-10-28T09:59:03.570Z,59.90
2017-10-28T10:01:31.046Z,59.60
2017-10-28T10:03:58.501Z,59.90
2017-10-28T10:06:25.949Z,60.20
2017-10-28T10:08:53.425Z,59.90
2017-10-28T10:11:21.634Z,59.60
2017-10-28T10:13:49.883Z,59.50
2017-10-28T10:16:18.111Z,59.00
2017-10-28T10:18:45.558Z,59.00
2017-10-28T10:21:13.026Z,59.20
2017-10-28T10:23:40.498Z,59.50
2017-10-28T10:26:07.967Z,59.40
2017-10-28T10:28:35.467Z,59.10
2017-10-28T10:31:02.936Z,59.00
2017-10-28T10:33:30.380Z,59.20
2017-10-28T10:35:57.825Z,59.50
2017-10-28T10:38:25.278Z,59.40
2017-10-28T10:40:52.742Z,59.40
2017-10-28T10:43:20.949Z,59.30
2017-10-28T10:45:48.408Z,59.30
2017-10-28T10:48:15.854Z,59.60
2017-10-28T10:50:43.339Z,59.80
2017-10-28T10:53:10.796Z,60.00
2017-10-28T10:55:38.258Z,59.80
2017-10-28T10:58:05.722Z,59.60
2017-10-28T11:00:33.185Z,59.60
2017-10-28T11:03:00.640Z,59.60
2017-10-28T11:05:28.094Z,59.90
2017-10-28T11:07:55.557Z,60.10
2017-10-28T11:10:23.004Z,59.90
2017-10-28T11:12:50.476Z,59.90
2017-10-28T11:15:17.930Z,59.60
2017-10-28T11:17:45.378Z,59.20
2017-10-28T11:20:12.834Z,59.20
2017-10-28T11:22:40.292Z,68.30
2017-10-28T11:25:07.748Z,69.00
2017-10-28T11:27:35.208Z,63.20
2017-10-28T11:30:02.661Z,63.60
2017-10-28T11:32:30.126Z,64.50
2017-10-28T11:34:57.579Z,62.10
2017-10-28T11:37:25.028Z,60.20
2017-10-28T11:39:52.494Z,60.50
2017-10-28T11:42:19.937Z,59.50
2017-10-28T11:44:47.393Z,59.90
2017-10-28T11:47:14.847Z,58.50
2017-10-28T11:49:42.311Z,57.90
2017-10-28T11:52:09.766Z,57.20
2017-10-28T11:54:37.218Z,57.00
2017-10-28T11:57:04.674Z,57.00
2017-10-28T11:59:32.167Z,57.00
2017-10-28T12:02:00.399Z,57.20
2017-10-28T12:04:28.526Z,57.10
2017-10-28T12:06:56.746Z,57.30
2017-10-28T12:09:24.217Z,57.30
2017-10-28T12:11:51.671Z,57.60
2017-10-28T12:14:19.192Z,58.10
2017-10-28T12:16:47.392Z,58.80
2017-10-28T12:19:14.955Z,58.70
2017-10-28T12:21:42.406Z,58.90
2017-10-28T12:24:09.904Z,59.40
2017-10-28T12:26:37.369Z,59.80
2017-10-28T12:29:04.826Z,60.00
2017-10-28T12:31:32.282Z,59.90
2017-10-28T12:34:00.507Z,59.70
2017-10-28T12:36:27.977Z,59.70
2017-10-28T12:38:55.434Z,59.60
2017-10-28T12:41:22.907Z,59.50
2017-10-28T12:43:50.361Z,59.50
2017-10-28T12:46:17.840Z,59.30
2017-10-28T12:48:45.299Z,59.00
2017-10-28T12:51:12.763Z,59.00
2017-10-28T12:53:40.221Z,59.00
2017-10-28T12:56:07.750Z,59.10
2017-10-28T12:58:35.195Z,59.00
2017-10-28T13:01:02.659Z,59.00
2017-10-28T13:03:30.114Z,59.10
2017-10-28T13:05:57.580Z,59.10
2017-10-28T13:08:25.043Z,58.80
2017-10-28T13:10:52.486Z,58.80
2017-10-28T13:13:19.950Z,58.90
2017-10-28T13:15:47.412Z,58.90
2017-10-28T13:18:14.867Z,59.00
2017-10-28T13:20:42.305Z,59.00
2017-10-28T13:23:09.774Z,58.90
2017-10-28T13:25:37.226Z,58.60
2017-10-28T13:28:04.684Z,58.40
2017-10-28T13:30:32.147Z,58.60
2017-10-28T13:32:59.601Z,58.70
2017-10-28T13:35:27.054Z,58.70
2017-10-28T13:37:54.541Z,58.40
2017-10-28T13:40:21.966Z,58.40
2017-10-28T13:42:49.493Z,58.40
2017-10-28T13:45:16.942Z,58.60
2017-10-28T13:47:44.410Z,58.80
2017-10-28T13:50:11.857Z,58.40
2017-10-28T13:52:39.325Z,58.30
2017-10-28T13:55:06.778Z,58.50
2017-10-28T13:57:34.250Z,59.00
2017-10-28T14:00:01.705Z,58.80
2017-10-28T14:02:29.163Z,59.20
2017-10-28T14:04:56.624Z,59.40
2017-10-28T14:07:24.090Z,59.60
2017-10-28T14:09:51.542Z,59.80
2017-10-28T14:12:19.018Z,59.90
2017-10-28T14:14:46.480Z,59.90
2017-10-28T14:17:13.923Z,60.00
2017-10-28T14:19:41.385Z,59.80
2017-10-28T14:22:08.829Z,60.00
2017-10-28T14:24:36.294Z,60.10
2017-10-28T14:27:03.746Z,59.90
2017-10-28T14:29:31.206Z,59.60
2017-10-28T14:31:58.654Z,59.70
2017-10-28T14:34:26.122Z,59.50
2017-10-28T14:36:53.569Z,59.70
2017-10-28T14:39:21.022Z,59.70
2017-10-28T14:41:48.482Z,59.80
2017-10-28T14:44:15.943Z,59.80
2017-10-28T14:46:43.393Z,59.80
2017-10-28T14:49:10.871Z,59.70
2017-10-28T14:51:38.318Z,59.50
2017-10-28T14:54:05.767Z,59.40
2017-10-28T14:56:33.230Z,59.50
2017-10-28T14:59:00.694Z,59.60
2017-10-28T15:01:28.142Z,59.50
2017-10-28T15:03:55.594Z,59.50
2017-10-28T15:06:23.060Z,59.50
2017-10-28T15:08:50.510Z,59.50
2017-10-28T15:11:17.969Z,59.60
2017-10-28T15:13:45.421Z,62.10
2017-10-28T15:16:12.897Z,61.70
2017-10-28T15:18:40.356Z,61.20
2017-10-28T15:21:07.814Z,61.30
2017-10-28T15:23:35.265Z,61.30
2017-10-28T15:26:02.730Z,60.90
2017-10-28T15:28:30.186Z,60.80
2017-10-28T15:30:57.643Z,60.80
2017-10-28T15:33:25.102Z,62.70
2017-10-28T15:35:52.558Z,65.70
2017-10-28T15:38:20.023Z,64.50
2017-10-28T15:40:47.508Z,64.30
2017-10-28T15:43:14.965Z,64.60
2017-10-28T15:45:42.418Z,64.60
2017-10-28T15:48:09.871Z,64.60
2017-10-28T15:50:37.319Z,64.60
2017-10-28T15:53:04.774Z,64.80
2017-10-28T15:55:32.237Z,64.80
2017-10-28T15:57:59.688Z,64.80
2017-10-28T16:00:27.171Z,64.60
2017-10-28T16:02:55.386Z,64.00
2017-10-28T16:05:22.846Z,64.00
2017-10-28T16:07:50.302Z,64.10
2017-10-28T16:10:17.771Z,64.20
2017-10-28T16:12:45.218Z,64.20
2017-10-28T16:15:12.675Z,64.00
2017-10-28T16:17:40.353Z,63.70
2017-10-28T16:20:07.813Z,63.90
2017-10-28T16:22:35.337Z,63.70
2017-10-28T16:25:02.784Z,63.60
2017-10-28T16:27:30.450Z,63.40
2017-10-28T16:29:58.670Z,63.10
2017-10-28T16:32:26.136Z,63.10
2017-10-28T16:34:53.586Z,62.90
2017-10-28T16:37:21.039Z,62.60
2017-10-28T16:39:48.518Z,62.60
2017-10-28T16:42:15.985Z,63.00
2017-10-28T16:44:43.439Z,63.10
2017-10-28T16:47:10.910Z,63.00
2017-10-28T16:49:38.388Z,63.00
2017-10-28T16:52:05.846Z,63.20
2017-10-28T16:54:33.313Z,63.40
2017-10-28T16:57:00.788Z,63.30
2017-10-28T16:59:28.247Z,63.20
2017-10-28T17:01:55.714Z,63.60
2017-10-28T17:04:23.157Z,63.60
2017-10-28T17:06:50.613Z,63.90
2017-10-28T17:09:18.069Z,63.80
2017-10-28T17:11:45.530Z,63.60
2017-10-28T17:14:12.987Z,63.80
2017-10-28T17:16:40.454Z,63.70
2017-10-28T17:19:07.914Z,63.70
2017-10-28T17:21:35.383Z,63.70
2017-10-28T17:24:02.860Z,63.90
2017-10-28T17:26:30.312Z,63.80
2017-10-28T17:28:57.773Z,63.70
2017-10-28T17:31:25.222Z,64.10
2017-10-28T17:33:52.690Z,64.10
2017-10-28T17:36:20.146Z,64.20
2017-10-28T17:38:47.610Z,64.10
2017-10-28T17:41:15.060Z,63.90
2017-10-28T17:43:42.518Z,72.70
2017-10-28T17:46:09.971Z,75.20
2017-10-28T17:48:37.429Z,73.30
2017-10-28T17:51:04.890Z,71.90
2017-10-28T17:53:32.348Z,71.40
2017-10-28T17:55:59.810Z,71.40
2017-10-28T17:58:27.260Z,71.00
2017-10-28T18:00:54.720Z,70.80
2017-10-28T18:03:22.169Z,70.70
2017-10-28T18:05:49.630Z,70.30
2017-10-28T18:08:17.086Z,70.10
2017-10-28T18:10:44.544Z,69.80
2017-10-28T18:13:12.000Z,69.80
2017-10-28T18:15:39.463Z,69.60
2017-10-28T18:18:06.922Z,69.80
2017-10-28T18:20:34.386Z,69.80
2017-10-28T18:23:02.609Z,69.70
2017-10-28T18:25:30.099Z,69.60
2017-10-28T18:27:57.548Z,69.60
2017-10-28T18:30:25.044Z,69.80
2017-10-28T18:32:53.269Z,70.00
2017-10-28T18:35:20.722Z,70.00
2017-10-28T18:37:48.193Z,69.80
2017-10-28T18:40:15.642Z,69.90
2017-10-28T18:42:43.112Z,69.40
2017-10-28T18:45:10.569Z,69.50
2017-10-28T18:47:38.026Z,69.60
2017-10-28T18:50:05.479Z,69.60
2017-10-28T18:52:32.955Z,69.30
2017-10-28T18:55:00.410Z,69.50
2017-10-28T18:57:27.889Z,69.40
2017-10-28T18:59:56.110Z,69.20
2017-10-28T19:02:23.602Z,69.20
2017-10-28T19:04:51.045Z,69.20
2017-10-28T19:07:18.519Z,69.20
2017-10-28T19:09:45.975Z,69.50
2017-10-28T19:12:13.426Z,69.20
2017-10-28T19:14:40.897Z,69.10
2017-10-28T19:17:08.333Z,68.90
2017-10-28T19:19:35.794Z,68.70
2017-10-28T19:22:03.255Z,68.70
2017-10-28T19:24:30.718Z,68.50
2017-10-28T19:26:58.162Z,68.70
2017-10-28T19:29:25.619Z,68.90
2017-10-28T19:31:53.078Z,68.70
2017-10-28T19:34:20.550Z,68.60
2017-10-28T19:36:48.022Z,68.80
2017-10-28T19:39:15.478Z,68.80
2017-10-28T19:41:43.707Z,69.00
2017-10-28T19:44:11.186Z,69.00
2017-10-28T19:46:38.634Z,68.90
2017-10-28T19:49:06.093Z,68.60
2017-10-28T19:51:33.541Z,68.60
2017-10-28T19:54:01.070Z,68.70
2017-10-28T19:56:28.517Z,68.50
2017-10-28T19:58:55.966Z,68.50
2017-10-28T20:01:24.194Z,68.70
2017-10-28T20:03:51.644Z,68.70
2017-10-28T20:06:19.101Z,68.80
2017-10-28T20:08:46.559Z,69.00
2017-10-28T20:11:14.011Z,68.90
2017-10-28T20:13:41.475Z,69.00
2017-10-28T20:16:08.945Z,69.00
2017-10-28T20:18:36.407Z,68.80
2017-10-28T20:21:03.896Z,68.70
2017-10-28T20:23:32.113Z,68.80
2017-10-28T20:25:59.582Z,68.80
2017-10-28T20:28:27.040Z,69.00
2017-10-28T20:30:54.498Z,68.90
2017-10-28T20:33:21.958Z,68.90
2017-10-28T20:35:49.432Z,69.00
2017-10-28T20:38:16.881Z,68.90
2017-10-28T20:40:44.479Z,68.80
2017-10-28T20:43:12.699Z,68.70
2017-10-28T20:45:40.210Z,68.70
2017-10-28T20:48:08.441Z,68.80
2017-10-28T20:50:35.894Z,68.80
2017-10-28T20:53:03.362Z,69.00
2017-10-28T20:55:30.822Z,69.00
2017-10-28T20:57:58.278Z,69.00
2017-10-28T21:00:25.723Z,68.90
2017-10-28T21:02:53.178Z,68.90
2017-10-28T21:05:20.625Z,68.90
2017-10-28T21:07:48.095Z,68.70
2017-10-28T21:10:15.538Z,68.70
2017-10-28T21:12:43.006Z,68.70
2017-10-28T21:15:10.461Z,68.80
2017-10-28T21:17:37.922Z,68.50
2017-10-28T21:20:05.372Z,68.70
2017-10-28T21:22:32.838Z,68.70
2017-10-28T21:25:00.293Z,68.70
2017-10-28T21:27:27.755Z,68.80
2017-10-28T21:29:55.207Z,68.70
2017-10-28T21:32:22.681Z,68.70
2017-10-28T21:34:50.142Z,68.70
2017-10-28T21:37:17.591Z,68.80
2017-10-28T21:39:45.065Z,68.80
2017-10-28T21:42:12.526Z,68.60
2017-10-28T21:44:39.987Z,68.40
2017-10-28T21:47:07.433Z,68.20
2017-10-28T21:49:34.898Z,68.30
2017-10-28T21:52:02.342Z,68.10
2017-10-28T21:54:29.805Z,68.00
2017-10-28T21:56:57.249Z,67.80
2017-10-28T21:59:24.706Z,67.70
2017-10-28T22:01:52.164Z,67.80
2017-10-28T22:04:19.611Z,67.60
2017-10-28T22:06:47.069Z,67.60
2017-10-28T22:09:14.522Z,67.50
2017-10-28T22:11:41.970Z,67.30
2017-10-28T22:14:09.430Z,67.10
2017-10-28T22:16:36.886Z,67.00
2017-10-28T22:19:04.358Z,67.00
2017-10-28T22:21:31.815Z,67.00
2017-10-28T22:23:59.282Z,66.90
2017-10-28T22:26:26.726Z,66.70
2017-10-28T22:28:54.178Z,66.80
2017-10-28T22:31:21.645Z,66.70
2017-10-28T22:33:49.091Z,66.70
2017-10-28T22:36:16.549Z,66.90
2017-10-28T22:38:44.010Z,66.90
2017-10-28T22:41:11.466Z,67.10
2017-10-28T22:43:38.938Z,67.20
2017-10-28T22:46:06.402Z,67.30
2017-10-28T22:48:33.852Z,67.40
2017-10-28T22:51:01.316Z,67.40
2017-10-28T22:53:28.777Z,67.50
2017-10-28T22:55:56.225Z,67.50
2017-10-28T22:58:23.684Z,67.50
2017-10-28T23:00:51.154Z,67.40
2017-10-28T23:03:18.622Z,67.40
2017-10-28T23:05:46.099Z,67.50
2017-10-28T23:08:14.307Z,67.60
2017-10-28T23:10:41.795Z,67.60
2017-10-28T23:13:09.242Z,67.60
2017-10-28T23:15:36.707Z,67.50
2017-10-28T23:18:04.170Z,67.50
2017-10-28T23:20:31.625Z,67.70
2017-10-28T23:22:59.086Z,67.80
2017-10-28T23:25:26.537Z,67.70
2017-10-28T23:27:53.997Z,67.80
2017-10-28T23:30:21.454Z,67.90
2017-10-28T23:32:48.922Z,67.70
2017-10-28T23:35:16.377Z,67.80
2017-10-28T23:37:43.835Z,67.90
2017-10-28T23:40:11.285Z,68.00
2017-10-28T23:42:38.745Z,67.80
2017-10-28T23:45:06.200Z,67.60
2017-10-28T23:47:33.661Z,67.60
2017-10-28T23:50:01.108Z,67.70
2017-10-28T23:52:28.557Z,67.80
2017-10-28T23:54:56.027Z,67.80
2017-10-28T23:57:23.487Z,67.80
2017-10-28T23:59:50.975Z,67.80
